sensor_id;sensor_type;location;lat;lon;timestamp;pressure;altitude;pressure_sealevel;temperature;humidity
10474;BME280;5284;50.446;7.904;2023-05-01T01:21:38;98484.47;;;9.57;100.00
10474;BME280;5284;50.446;7.904;2023-05-01T01:27:26;98469.78;;;9.62;100.00
10474;BME280;5284;50.446;7.904;2023-05-01T01:33:58;98468.25;;;9.60;100.00
10474;BME280;5284;50.446;7.904;2023-05-01T01:39:08;98471.88;;;9.59;100.00
10474;BME280;5284;50.446;7.904;2023-05-01T01:44:17;98454.47;;;9.55;100.00
10474;BME280;5284;50.446;7.904;2023-05-01T01:49:25;98454.84;;;9.50;100.00
10474;BME280;5284;50.446;7.904;2023-05-01T01:54:30;98450.72;;;9.46;100.00
10474;BME280;5284;50.446;7.904;2023-05-01T01:59:34;98446.41;;;9.34;100.00
10474;BME280;5284;50.446;7.904;2023-05-01T02:04:41;98449.19;;;9.33;100.00
10474;BME280;5284;50.446;7.904;2023-05-01T02:09:45;98447.75;;;9.29;100.00
10474;BME280;5284;50.446;7.904;2023-05-01T02:14:48;98436.53;;;9.14;100.00
10474;BME280;5284;50.446;7.904;2023-05-01T02:19:54;98433.16;;;9.12;100.00
10474;BME280;5284;50.446;7.904;2023-05-01T02:24:59;98434.34;;;9.19;100.00
10474;BME280;5284;50.446;7.904;2023-05-01T02:30:03;98433.28;;;9.22;100.00
10474;BME280;5284;50.446;7.904;2023-05-01T02:35:09;98430.59;;;9.22;100.00
10474;BME280;5284;50.446;7.904;2023-05-01T02:40:12;98425.34;;;9.31;100.00
10474;BME280;5284;50.446;7.904;2023-05-01T02:45:18;98415.13;;;9.27;100.00
10474;BME280;5284;50.446;7.904;2023-05-01T02:50:23;98415.94;;;9.27;100.00
10474;BME280;5284;50.446;7.904;2023-05-01T02:55:27;98416.16;;;9.35;100.00
10474;BME280;5284;50.446;7.904;2023-05-01T03:00:31;98416.66;;;9.29;100.00
10474;BME280;5284;50.446;7.904;2023-05-01T03:05:36;98416.53;;;9.31;100.00
10474;BME280;5284;50.446;7.904;2023-05-01T03:10:40;98408.06;;;9.37;100.00
10474;BME280;5284;50.446;7.904;2023-05-01T03:15:44;98402.22;;;9.43;100.00
10474;BME280;5284;50.446;7.904;2023-05-01T03:20:52;98399.91;;;9.49;100.00
10474;BME280;5284;50.446;7.904;2023-05-01T03:25:55;98401.22;;;9.55;100.00
10474;BME280;5284;50.446;7.904;2023-05-01T03:31:00;98396.72;;;9.55;100.00
10474;BME280;5284;50.446;7.904;2023-05-01T03:36:06;98388.38;;;9.60;100.00
10474;BME280;5284;50.446;7.904;2023-05-01T03:41:09;98382.78;;;9.63;100.00
10474;BME280;5284;50.446;7.904;2023-05-01T03:46:27;98375.50;;;9.65;100.00
10474;BME280;5284;50.446;7.904;2023-05-01T03:51:31;98369.66;;;9.71;100.00
10474;BME280;5284;50.446;7.904;2023-05-01T03:56:34;98371.97;;;9.75;100.00
10474;BME280;5284;50.446;7.904;2023-05-01T04:01:39;98369.84;;;9.79;100.00
10474;BME280;5284;50.446;7.904;2023-05-01T04:06:43;98380.13;;;9.83;100.00
10474;BME280;5284;50.446;7.904;2023-05-01T04:11:46;98374.28;;;9.89;100.00
10474;BME280;5284;50.446;7.904;2023-05-01T04:16:50;98381.91;;;9.94;100.00
10474;BME280;5284;50.446;7.904;2023-05-01T04:21:54;98375.44;;;9.96;100.00
10474;BME280;5284;50.446;7.904;2023-05-01T04:26:57;98376.03;;;10.00;100.00
10474;BME280;5284;50.446;7.904;2023-05-01T04:32:00;98374.13;;;10.02;100.00
10474;BME280;5284;50.446;7.904;2023-05-01T04:37:04;98372.03;;;10.05;100.00
10474;BME280;5284;50.446;7.904;2023-05-01T04:42:09;98361.13;;;10.08;100.00
10474;BME280;5284;50.446;7.904;2023-05-01T04:47:12;98363.25;;;10.14;100.00
10474;BME280;5284;50.446;7.904;2023-05-01T04:52:16;98360.91;;;10.21;100.00
10474;BME280;5284;50.446;7.904;2023-05-01T04:57:29;98359.09;;;10.21;100.00
10474;BME280;5284;50.446;7.904;2023-05-01T05:02:33;98358.81;;;10.24;100.00
10474;BME280;5284;50.446;7.904;2023-05-01T05:07:38;98362.72;;;10.20;100.00
10474;BME280;5284;50.446;7.904;2023-05-01T05:13:10;98356.75;;;10.28;100.00
10474;BME280;5284;50.446;7.904;2023-05-01T05:18:13;98364.31;;;10.32;100.00
10474;BME280;5284;50.446;7.904;2023-05-01T05:23:18;98358.28;;;10.30;100.00
10474;BME280;5284;50.446;7.904;2023-05-01T05:28:22;98366.88;;;10.34;100.00
10474;BME280;5284;50.446;7.904;2023-05-01T05:33:25;98354.25;;;10.36;100.00
10474;BME280;5284;50.446;7.904;2023-05-01T05:38:31;98355.00;;;10.47;100.00
10474;BME280;5284;50.446;7.904;2023-05-01T05:43:34;98349.72;;;10.57;100.00
10474;BME280;5284;50.446;7.904;2023-05-01T05:48:38;98350.56;;;10.66;100.00
10474;BME280;5284;50.446;7.904;2023-05-01T05:53:45;98357.91;;;10.83;100.00
10474;BME280;5284;50.446;7.904;2023-05-01T05:58:48;98350.53;;;10.96;100.00
10474;BME280;5284;50.446;7.904;2023-05-01T06:03:53;98343.66;;;11.13;100.00
10474;BME280;5284;50.446;7.904;2023-05-01T06:08:59;98347.91;;;11.34;99.89
10474;BME280;5284;50.446;7.904;2023-05-01T06:14:04;98343.81;;;11.49;100.00
10474;BME280;5284;50.446;7.904;2023-05-01T06:19:08;98349.88;;;11.61;96.87
10474;BME280;5284;50.446;7.904;2023-05-01T06:24:14;98350.41;;;11.55;91.54
10474;BME280;5284;50.446;7.904;2023-05-01T06:29:22;98344.19;;;12.11;92.89
10474;BME280;5284;50.446;7.904;2023-05-01T06:34:26;98341.41;;;12.03;90.25
10474;BME280;5284;50.446;7.904;2023-05-01T06:39:31;98346.75;;;11.94;90.62
10474;BME280;5284;50.446;7.904;2023-05-01T06:44:34;98341.78;;;12.18;90.64
10474;BME280;5284;50.446;7.904;2023-05-01T06:49:37;98338.41;;;12.52;87.76
10474;BME280;5284;50.446;7.904;2023-05-01T06:54:42;98343.63;;;12.80;87.13
10474;BME280;5284;50.446;7.904;2023-05-01T06:59:44;98337.28;;;13.08;83.53
10474;BME280;5284;50.446;7.904;2023-05-01T07:04:47;98337.97;;;12.83;85.20
10474;BME280;5284;50.446;7.904;2023-05-01T07:09:51;98333.31;;;12.95;83.65
10474;BME280;5284;50.446;7.904;2023-05-01T07:14:55;98324.56;;;12.93;83.89
10474;BME280;5284;50.446;7.904;2023-05-01T07:19:59;98327.19;;;13.02;81.70
10474;BME280;5284;50.446;7.904;2023-05-01T07:25:04;98325.75;;;13.08;81.76
10474;BME280;5284;50.446;7.904;2023-05-01T07:30:08;98320.78;;;13.48;80.65
10474;BME280;5284;50.446;7.904;2023-05-01T07:35:12;98326.81;;;13.50;80.20
10474;BME280;5284;50.446;7.904;2023-05-01T07:40:17;98308.06;;;13.92;77.81
10474;BME280;5284;50.446;7.904;2023-05-01T07:45:19;98322.28;;;14.28;74.53
10474;BME280;5284;50.446;7.904;2023-05-01T07:50:22;98320.75;;;14.59;76.19
10474;BME280;5284;50.446;7.904;2023-05-01T07:55:27;98306.22;;;14.69;72.38
10474;BME280;5284;50.446;7.904;2023-05-01T08:00:32;98317.59;;;14.63;72.41
10474;BME280;5284;50.446;7.904;2023-05-01T08:05:34;98317.53;;;14.55;74.39
10474;BME280;5284;50.446;7.904;2023-05-01T08:10:39;98313.16;;;14.88;71.75
10474;BME280;5284;50.446;7.904;2023-05-01T08:15:42;98314.84;;;15.38;66.39
10474;BME280;5284;50.446;7.904;2023-05-01T08:20:45;98309.63;;;16.16;65.44
10474;BME280;5284;50.446;7.904;2023-05-01T08:25:51;98309.97;;;16.21;64.78
10474;BME280;5284;50.446;7.904;2023-05-01T08:30:54;98314.41;;;16.69;62.96
10474;BME280;5284;50.446;7.904;2023-05-01T08:35:58;98306.50;;;17.58;60.98
10474;BME280;5284;50.446;7.904;2023-05-01T08:41:03;98308.38;;;17.27;59.50
10474;BME280;5284;50.446;7.904;2023-05-01T08:46:08;98296.09;;;17.55;59.16
10474;BME280;5284;50.446;7.904;2023-05-01T08:51:14;98283.50;;;18.07;56.85
10474;BME280;5284;50.446;7.904;2023-05-01T08:56:24;98280.41;;;18.61;55.80
10474;BME280;5284;50.446;7.904;2023-05-01T09:01:27;98282.81;;;18.28;56.38
10474;BME280;5284;50.446;7.904;2023-05-01T09:06:33;98269.78;;;18.46;54.66
10474;BME280;5284;50.446;7.904;2023-05-01T09:11:37;98271.19;;;18.56;54.65
10474;BME280;5284;50.446;7.904;2023-05-01T09:16:41;98277.44;;;18.28;56.63
10474;BME280;5284;50.446;7.904;2023-05-01T09:21:44;98274.66;;;19.00;55.80
10474;BME280;5284;50.446;7.904;2023-05-01T09:26:49;98267.72;;;18.76;56.08
10474;BME280;5284;50.446;7.904;2023-05-01T09:31:52;98266.91;;;18.76;54.20
10474;BME280;5284;50.446;7.904;2023-05-01T09:36:56;98265.00;;;19.62;53.45
10474;BME280;5284;50.446;7.904;2023-05-01T09:42:00;98258.13;;;19.59;53.92
10474;BME280;5284;50.446;7.904;2023-05-01T09:47:03;98256.22;;;20.02;52.90
10474;BME280;5284;50.446;7.904;2023-05-01T09:52:11;98265.53;;;20.54;53.74
10474;BME280;5284;50.446;7.904;2023-05-01T09:57:16;98252.69;;;20.01;53.80
10474;BME280;5284;50.446;7.904;2023-05-01T10:02:35;98248.03;;;19.53;54.51
10474;BME280;5284;50.446;7.904;2023-05-01T10:07:39;98250.88;;;19.45;55.09
10474;BME280;5284;50.446;7.904;2023-05-01T10:12:44;98248.63;;;19.49;54.26
10474;BME280;5284;50.446;7.904;2023-05-01T10:17:49;98247.47;;;19.79;54.25
10474;BME280;5284;50.446;7.904;2023-05-01T10:22:53;98247.81;;;20.85;51.96
10474;BME280;5284;50.446;7.904;2023-05-01T10:28:01;98255.09;;;21.32;52.52
10474;BME280;5284;50.446;7.904;2023-05-01T10:33:05;98243.34;;;21.12;51.50
10474;BME280;5284;50.446;7.904;2023-05-01T10:38:10;98228.06;;;21.96;49.75
10474;BME280;5284;50.446;7.904;2023-05-01T10:43:18;98226.56;;;21.68;49.35
10474;BME280;5284;50.446;7.904;2023-05-01T10:48:56;98213.38;;;22.36;48.23
10474;BME280;5284;50.446;7.904;2023-05-01T10:54:21;98214.25;;;21.78;50.63
10474;BME280;5284;50.446;7.904;2023-05-01T11:05:10;98209.16;;;21.43;47.95
10474;BME280;5284;50.446;7.904;2023-05-01T11:10:25;98213.41;;;20.86;48.63
10474;BME280;5284;50.446;7.904;2023-05-01T11:15:31;98206.81;;;20.61;46.86
10474;BME280;5284;50.446;7.904;2023-05-01T11:20:49;98198.84;;;20.93;47.63
10474;BME280;5284;50.446;7.904;2023-05-01T11:26:02;98200.94;;;20.57;47.40
10474;BME280;5284;50.446;7.904;2023-05-01T11:31:08;98203.94;;;20.01;49.70
10474;BME280;5284;50.446;7.904;2023-05-01T11:36:12;98197.09;;;20.39;48.48
10474;BME280;5284;50.446;7.904;2023-05-01T11:41:18;98198.13;;;19.77;49.77
10474;BME280;5284;50.446;7.904;2023-05-01T11:46:24;98201.59;;;19.98;49.14
10474;BME280;5284;50.446;7.904;2023-05-01T11:51:29;98195.41;;;19.77;51.32
10474;BME280;5284;50.446;7.904;2023-05-01T11:56:33;98192.78;;;20.11;47.74
10474;BME280;5284;50.446;7.904;2023-05-01T12:01:40;98188.38;;;20.10;48.78
10474;BME280;5284;50.446;7.904;2023-05-01T12:06:45;98189.38;;;19.81;48.16
10474;BME280;5284;50.446;7.904;2023-05-01T12:11:50;98189.19;;;19.83;48.88
10474;BME280;5284;50.446;7.904;2023-05-01T12:16:55;98191.44;;;19.79;48.47
10474;BME280;5284;50.446;7.904;2023-05-01T12:22:05;98195.84;;;19.80;47.92
10474;BME280;5284;50.446;7.904;2023-05-01T12:27:08;98203.44;;;19.43;48.29
10474;BME280;5284;50.446;7.904;2023-05-01T12:32:13;98199.75;;;18.94;48.70
10474;BME280;5284;50.446;7.904;2023-05-01T12:37:18;98206.56;;;18.90;48.96
10474;BME280;5284;50.446;7.904;2023-05-01T12:42:21;98202.84;;;18.91;48.57
10474;BME280;5284;50.446;7.904;2023-05-01T12:47:35;98204.59;;;18.98;48.59
10474;BME280;5284;50.446;7.904;2023-05-01T12:52:40;98192.13;;;19.18;48.07
10474;BME280;5284;50.446;7.904;2023-05-01T12:57:53;98183.03;;;19.68;47.40
10474;BME280;5284;50.446;7.904;2023-05-01T13:03:02;98177.69;;;20.29;46.16
10474;BME280;5284;50.446;7.904;2023-05-01T13:08:06;98183.47;;;20.66;45.61
10474;BME280;5284;50.446;7.904;2023-05-01T13:13:10;98186.63;;;21.23;45.73
10474;BME280;5284;50.446;7.904;2023-05-01T13:18:15;98182.25;;;21.35;44.72
10474;BME280;5284;50.446;7.904;2023-05-01T13:23:18;98177.88;;;21.41;44.90
10474;BME280;5284;50.446;7.904;2023-05-01T13:28:21;98174.34;;;22.18;44.09
10474;BME280;5284;50.446;7.904;2023-05-01T13:33:27;98172.81;;;22.28;42.70
10474;BME280;5284;50.446;7.904;2023-05-01T13:38:40;98176.47;;;21.96;43.43
10474;BME280;5284;50.446;7.904;2023-05-01T13:43:44;98158.56;;;22.52;43.27
10474;BME280;5284;50.446;7.904;2023-05-01T13:48:49;98166.88;;;23.08;43.55
10474;BME280;5284;50.446;7.904;2023-05-01T13:53:54;98163.03;;;22.21;43.59
10474;BME280;5284;50.446;7.904;2023-05-01T13:58:58;98169.69;;;21.15;44.80
10474;BME280;5284;50.446;7.904;2023-05-01T14:04:02;98175.34;;;20.66;46.72
10474;BME280;5284;50.446;7.904;2023-05-01T14:09:05;98172.13;;;20.50;46.89
10474;BME280;5284;50.446;7.904;2023-05-01T14:14:08;98159.94;;;19.99;48.91
10474;BME280;5284;50.446;7.904;2023-05-01T14:19:13;98163.28;;;19.46;49.47
10474;BME280;5284;50.446;7.904;2023-05-01T14:24:16;98164.19;;;18.90;50.98
10474;BME280;5284;50.446;7.904;2023-05-01T14:29:21;98167.09;;;18.74;51.87
10474;BME280;5284;50.446;7.904;2023-05-01T14:34:26;98165.81;;;18.70;52.39
10474;BME280;5284;50.446;7.904;2023-05-01T14:39:31;98169.50;;;18.34;54.22
10474;BME280;5284;50.446;7.904;2023-05-01T14:44:38;98179.84;;;18.45;53.08
10474;BME280;5284;50.446;7.904;2023-05-01T14:49:42;98174.88;;;18.20;52.62
10474;BME280;5284;50.446;7.904;2023-05-01T14:54:45;98178.53;;;18.41;53.45
10474;BME280;5284;50.446;7.904;2023-05-01T14:59:49;98180.75;;;18.52;52.61
10474;BME280;5284;50.446;7.904;2023-05-01T15:04:53;98177.44;;;18.71;51.94
10474;BME280;5284;50.446;7.904;2023-05-01T15:09:58;98182.78;;;18.64;52.71
10474;BME280;5284;50.446;7.904;2023-05-01T15:15:02;98181.47;;;18.60;52.98
10474;BME280;5284;50.446;7.904;2023-05-01T15:20:10;98176.34;;;18.65;52.66
10474;BME280;5284;50.446;7.904;2023-05-01T15:25:13;98184.97;;;18.40;52.61
10474;BME280;5284;50.446;7.904;2023-05-01T15:30:17;98183.44;;;18.52;52.40
10474;BME280;5284;50.446;7.904;2023-05-01T15:35:21;98172.63;;;18.66;53.83
10474;BME280;5284;50.446;7.904;2023-05-01T15:40:25;98184.00;;;18.97;52.42
10474;BME280;5284;50.446;7.904;2023-05-01T15:45:28;98183.91;;;18.91;52.54
10474;BME280;5284;50.446;7.904;2023-05-01T15:50:32;98184.16;;;18.75;53.86
10474;BME280;5284;50.446;7.904;2023-05-01T15:55:35;98191.25;;;18.76;53.79
10474;BME280;5284;50.446;7.904;2023-05-01T16:00:38;98196.53;;;18.84;53.67
10474;BME280;5284;50.446;7.904;2023-05-01T16:05:45;98199.25;;;18.69;53.71
10474;BME280;5284;50.446;7.904;2023-05-01T16:10:48;98198.16;;;18.49;54.89
10474;BME280;5284;50.446;7.904;2023-05-01T16:15:50;98207.41;;;18.26;56.37
10474;BME280;5284;50.446;7.904;2023-05-01T16:20:55;98214.69;;;18.03;57.38
10474;BME280;5284;50.446;7.904;2023-05-01T16:25:58;98218.03;;;17.76;59.41
10474;BME280;5284;50.446;7.904;2023-05-01T16:31:02;98217.78;;;17.63;59.46
10474;BME280;5284;50.446;7.904;2023-05-01T16:36:27;98236.75;;;17.33;62.33
10474;BME280;5284;50.446;7.904;2023-05-01T16:41:34;98236.59;;;17.04;65.76
10474;BME280;5284;50.446;7.904;2023-05-01T16:46:49;98255.16;;;16.99;66.16
10474;BME280;5284;50.446;7.904;2023-05-01T16:51:55;98254.66;;;16.65;67.86
10474;BME280;5284;50.446;7.904;2023-05-01T16:56:59;98260.13;;;16.41;66.93
10474;BME280;5284;50.446;7.904;2023-05-01T17:02:01;98266.91;;;16.21;67.55
10474;BME280;5284;50.446;7.904;2023-05-01T17:07:06;98260.22;;;15.93;69.30
10474;BME280;5284;50.446;7.904;2023-05-01T17:12:09;98260.72;;;15.97;70.27
10474;BME280;5284;50.446;7.904;2023-05-01T17:17:13;98259.88;;;15.80;72.70
10474;BME280;5284;50.446;7.904;2023-05-01T17:22:19;98274.88;;;15.67;75.18
10474;BME280;5284;50.446;7.904;2023-05-01T17:27:29;98274.19;;;15.49;77.31
10474;BME280;5284;50.446;7.904;2023-05-01T17:32:32;98276.88;;;15.41;77.00
10474;BME280;5284;50.446;7.904;2023-05-01T17:37:40;98293.25;;;15.14;79.69
10474;BME280;5284;50.446;7.904;2023-05-01T17:42:42;98297.22;;;14.94;82.29
10474;BME280;5284;50.446;7.904;2023-05-01T17:47:46;98292.03;;;14.85;83.90
10474;BME280;5284;50.446;7.904;2023-05-01T17:52:50;98308.66;;;14.55;88.12
10474;BME280;5284;50.446;7.904;2023-05-01T17:57:53;98309.09;;;14.42;90.43
10474;BME280;5284;50.446;7.904;2023-05-01T18:02:56;98309.66;;;14.20;91.67
10474;BME280;5284;50.446;7.904;2023-05-01T18:08:00;98318.28;;;14.14;91.96
10474;BME280;5284;50.446;7.904;2023-05-01T18:13:04;98316.91;;;14.28;89.82
10474;BME280;5284;50.446;7.904;2023-05-01T18:18:08;98324.59;;;14.23;88.80
10474;BME280;5284;50.446;7.904;2023-05-01T18:23:13;98327.94;;;14.25;88.69
10474;BME280;5284;50.446;7.904;2023-05-01T18:28:16;98336.09;;;14.15;88.43
10474;BME280;5284;50.446;7.904;2023-05-01T18:33:19;98345.22;;;14.05;89.42
10474;BME280;5284;50.446;7.904;2023-05-01T18:38:26;98357.88;;;13.95;90.20
10474;BME280;5284;50.446;7.904;2023-05-01T18:43:30;98369.38;;;13.87;90.77
10474;BME280;5284;50.446;7.904;2023-05-01T18:48:32;98373.28;;;13.75;90.53
10474;BME280;5284;50.446;7.904;2023-05-01T18:53:37;98372.22;;;13.69;93.10
10474;BME280;5284;50.446;7.904;2023-05-01T18:58:40;98390.31;;;13.49;93.72
10474;BME280;5284;50.446;7.904;2023-05-01T19:03:42;98389.69;;;13.38;94.52
10474;BME280;5284;50.446;7.904;2023-05-01T19:08:47;98399.44;;;13.29;95.46
10474;BME280;5284;50.446;7.904;2023-05-01T19:13:50;98409.00;;;13.14;97.44
10474;BME280;5284;50.446;7.904;2023-05-01T19:18:53;98418.19;;;13.02;98.23
10474;BME280;5284;50.446;7.904;2023-05-01T19:23:57;98411.94;;;12.94;98.24
10474;BME280;5284;50.446;7.904;2023-05-01T19:29:00;98412.22;;;12.81;100.00
10474;BME280;5284;50.446;7.904;2023-05-01T19:34:03;98410.72;;;12.69;100.00
10474;BME280;5284;50.446;7.904;2023-05-01T19:39:07;98422.47;;;12.59;100.00
10474;BME280;5284;50.446;7.904;2023-05-01T19:44:10;98434.16;;;12.48;100.00
10474;BME280;5284;50.446;7.904;2023-05-01T19:49:14;98429.53;;;12.41;100.00
10474;BME280;5284;50.446;7.904;2023-05-01T19:54:18;98424.75;;;12.35;100.00
10474;BME280;5284;50.446;7.904;2023-05-01T19:59:22;98438.28;;;12.24;100.00
10474;BME280;5284;50.446;7.904;2023-05-01T20:04:25;98434.38;;;12.18;100.00
10474;BME280;5284;50.446;7.904;2023-05-01T20:09:30;98450.00;;;12.14;100.00
10474;BME280;5284;50.446;7.904;2023-05-01T20:14:33;98458.72;;;12.06;100.00
10474;BME280;5284;50.446;7.904;2023-05-01T20:19:37;98460.97;;;12.01;100.00
10474;BME280;5284;50.446;7.904;2023-05-01T20:24:41;98466.19;;;11.93;100.00
10474;BME280;5284;50.446;7.904;2023-05-01T20:29:44;98465.88;;;11.87;100.00
10474;BME280;5284;50.446;7.904;2023-05-01T20:34:47;98468.84;;;11.84;100.00
10474;BME280;5284;50.446;7.904;2023-05-01T20:39:51;98476.72;;;11.76;100.00
10474;BME280;5284;50.446;7.904;2023-05-01T20:44:54;98488.94;;;11.69;100.00
10474;BME280;5284;50.446;7.904;2023-05-01T20:49:57;98493.72;;;11.65;100.00
10474;BME280;5284;50.446;7.904;2023-05-01T20:55:03;98501.31;;;11.60;100.00
10474;BME280;5284;50.446;7.904;2023-05-01T21:00:07;98491.09;;;11.54;100.00
10474;BME280;5284;50.446;7.904;2023-05-01T21:05:10;98493.34;;;11.49;100.00
10474;BME280;5284;50.446;7.904;2023-05-01T21:10:14;98506.97;;;11.46;100.00
10474;BME280;5284;50.446;7.904;2023-05-01T21:15:17;98512.59;;;11.43;100.00
10474;BME280;5284;50.446;7.904;2023-05-01T21:20:28;98512.44;;;11.35;100.00
10474;BME280;5284;50.446;7.904;2023-05-01T21:25:32;98515.94;;;11.26;100.00
10474;BME280;5284;50.446;7.904;2023-05-01T21:30:35;98525.72;;;11.16;100.00
10474;BME280;5284;50.446;7.904;2023-05-01T21:35:40;98514.03;;;11.08;100.00
10474;BME280;5284;50.446;7.904;2023-05-01T21:40:45;98521.56;;;11.03;100.00
10474;BME280;5284;50.446;7.904;2023-05-01T21:45:47;98528.75;;;11.02;100.00
10474;BME280;5284;50.446;7.904;2023-05-01T21:50:50;98532.34;;;10.92;100.00
10474;BME280;5284;50.446;7.904;2023-05-01T21:55:55;98538.06;;;10.87;100.00
10474;BME280;5284;50.446;7.904;2023-05-01T22:00:58;98539.56;;;10.80;100.00
10474;BME280;5284;50.446;7.904;2023-05-01T22:06:01;98544.13;;;10.69;100.00
10474;BME280;5284;50.446;7.904;2023-05-01T22:11:05;98543.56;;;10.65;100.00
10474;BME280;5284;50.446;7.904;2023-05-01T22:16:09;98548.31;;;10.62;100.00
10474;BME280;5284;50.446;7.904;2023-05-01T22:21:13;98548.72;;;10.58;100.00
10474;BME280;5284;50.446;7.904;2023-05-01T22:26:17;98552.13;;;10.49;100.00
10474;BME280;5284;50.446;7.904;2023-05-01T22:31:20;98547.13;;;10.35;100.00
10474;BME280;5284;50.446;7.904;2023-05-01T22:36:22;98553.97;;;10.28;100.00
10474;BME280;5284;50.446;7.904;2023-05-01T22:41:27;98563.56;;;10.19;100.00
10474;BME280;5284;50.446;7.904;2023-05-01T22:46:29;98562.50;;;10.11;100.00
10474;BME280;5284;50.446;7.904;2023-05-01T22:51:32;98562.28;;;10.03;100.00
10474;BME280;5284;50.446;7.904;2023-05-01T22:56:37;98565.44;;;9.97;100.00
10474;BME280;5284;50.446;7.904;2023-05-01T23:01:40;98575.63;;;9.92;100.00
10474;BME280;5284;50.446;7.904;2023-05-01T23:06:43;98576.72;;;9.89;100.00
10474;BME280;5284;50.446;7.904;2023-05-01T23:11:47;98575.06;;;9.77;100.00
10474;BME280;5284;50.446;7.904;2023-05-01T23:16:50;98585.81;;;9.76;100.00
10474;BME280;5284;50.446;7.904;2023-05-01T23:22:04;98592.59;;;9.80;100.00
10474;BME280;5284;50.446;7.904;2023-05-01T23:27:10;98596.81;;;9.82;100.00
10474;BME280;5284;50.446;7.904;2023-05-01T23:32:19;98586.03;;;9.84;100.00
10474;BME280;5284;50.446;7.904;2023-05-01T23:37:23;98587.16;;;9.81;100.00
10474;BME280;5284;50.446;7.904;2023-05-01T23:42:27;98589.19;;;9.78;100.00
10474;BME280;5284;50.446;7.904;2023-05-01T23:47:30;98596.72;;;9.73;100.00
10474;BME280;5284;50.446;7.904;2023-05-01T23:52:33;98593.22;;;9.72;100.00
10474;BME280;5284;50.446;7.904;2023-05-01T23:57:38;98586.56;;;9.67;100.00
